createdAt,value
2018-11-05T00:01:07.553Z,9.23
2018-11-05T00:03:39.285Z,7.77
2018-11-05T00:06:09.660Z,8.83
2018-11-05T00:08:42.295Z,9.57
2018-11-05T00:11:15.152Z,9.23
2018-11-05T00:13:48.681Z,9.80
2018-11-05T00:16:19.194Z,9.00
2018-11-05T00:18:51.423Z,9.70
2018-11-05T00:21:23.379Z,9.13
2018-11-05T00:23:53.845Z,8.30
2018-11-05T00:26:25.552Z,8.50
2018-11-05T00:28:57.654Z,8.63
2018-11-05T00:31:28.475Z,8.90
2018-11-05T00:33:59.085Z,9.17
2018-11-05T00:36:29.489Z,8.30
2018-11-05T00:38:59.953Z,10.40
2018-11-05T00:41:30.342Z,8.63
2018-11-05T00:44:04.512Z,8.47
2018-11-05T00:46:37.540Z,8.77
2018-11-05T00:49:09.886Z,8.53
2018-11-05T00:51:41.633Z,8.80
2018-11-05T00:54:13.997Z,8.37
2018-11-05T00:56:49.794Z,8.83
2018-11-05T00:59:21.223Z,7.73
2018-11-05T01:01:53.880Z,8.33
2018-11-05T01:10:41.142Z,8.40
2018-11-05T01:13:12.618Z,8.93
2018-11-05T01:15:44.764Z,9.10
2018-11-05T01:18:15.561Z,7.57
2018-11-05T01:20:47.004Z,7.00
2018-11-05T01:23:17.953Z,8.00
2018-11-05T01:25:54.007Z,7.53
2018-11-05T01:28:27.319Z,7.17
2018-11-05T01:30:59.397Z,8.20
2018-11-05T01:33:30.512Z,7.33
2018-11-05T01:36:00.984Z,7.97
2018-11-05T01:38:31.853Z,7.67
2018-11-05T01:41:05.141Z,7.23
2018-11-05T01:43:41.472Z,7.43
2018-11-05T01:46:12.560Z,9.70
2018-11-05T01:48:48.515Z,6.90
2018-11-05T01:51:19.923Z,7.60
2018-11-05T01:53:51.200Z,7.53
2018-11-05T01:56:22.256Z,7.97
2018-11-05T01:58:55.198Z,7.40
2018-11-05T02:01:26.898Z,7.47
2018-11-05T02:03:58.587Z,7.30
2018-11-05T02:06:29.340Z,7.43
2018-11-05T02:09:02.901Z,7.30
2018-11-05T02:11:34.064Z,6.83
2018-11-05T02:14:07.550Z,7.80
2018-11-05T02:16:40.834Z,7.03
2018-11-05T02:19:14.410Z,7.60
2018-11-05T02:21:47.680Z,8.13
2018-11-05T02:24:19.358Z,7.50
2018-11-05T02:26:50.736Z,7.83
2018-11-05T02:29:21.459Z,7.90
2018-11-05T02:31:53.344Z,8.10
2018-11-05T02:34:23.972Z,7.07
2018-11-05T02:36:55.296Z,8.27
2018-11-05T02:39:26.035Z,7.90
2018-11-05T02:41:57.173Z,7.40
2018-11-05T02:44:28.037Z,8.50
2018-11-05T02:46:58.743Z,7.13
2018-11-05T02:49:29.522Z,8.10
2018-11-05T02:52:00.819Z,7.67
2018-11-05T02:54:31.469Z,7.07
2018-11-05T02:57:02.907Z,7.50
2018-11-05T02:59:33.858Z,8.67
2018-11-05T03:02:04.740Z,7.23
2018-11-05T03:04:35.500Z,7.60
2018-11-05T03:07:06.104Z,7.23
2018-11-05T03:09:37.156Z,7.03
2018-11-05T03:12:08.436Z,7.17
2018-11-05T03:14:39.203Z,6.77
2018-11-05T03:17:10.105Z,7.43
2018-11-05T03:19:40.973Z,7.50
2018-11-05T03:22:12.079Z,6.87
2018-11-05T03:24:43.139Z,6.47
2018-11-05T03:27:14.049Z,6.47
2018-11-05T03:29:45.004Z,6.50
2018-11-05T03:32:16.013Z,6.30
2018-11-05T03:34:48.338Z,6.43
2018-11-05T03:37:20.090Z,6.20
2018-11-05T03:39:52.374Z,6.27
2018-11-05T03:42:23.053Z,5.60
2018-11-05T03:44:54.238Z,6.40
2018-11-05T03:47:28.322Z,6.50
2018-11-05T03:49:59.393Z,6.43
2018-11-05T03:52:32.781Z,6.17
2018-11-05T03:55:03.628Z,6.97
2018-11-05T03:57:35.277Z,5.63
2018-11-05T04:00:09.516Z,6.07
2018-11-05T04:02:41.504Z,5.90
2018-11-05T04:05:12.383Z,6.30
2018-11-05T04:07:45.365Z,6.30
2018-11-05T04:10:18.009Z,6.03
2018-11-05T04:12:50.958Z,6.27
2018-11-05T04:15:23.041Z,5.97
2018-11-05T04:17:53.897Z,5.20
2018-11-05T04:20:24.578Z,5.97
2018-11-05T04:22:58.059Z,5.97
2018-11-05T04:25:30.996Z,6.80
2018-11-05T04:28:03.011Z,5.90
2018-11-05T04:30:34.117Z,5.70
2018-11-05T04:33:08.053Z,6.17
2018-11-05T04:35:39.570Z,7.40
2018-11-05T04:38:10.725Z,6.60
2018-11-05T04:40:42.237Z,6.67
2018-11-05T04:43:14.963Z,6.83
2018-11-05T04:45:46.401Z,6.20
2018-11-05T04:48:17.125Z,6.20
2018-11-05T04:50:49.818Z,5.87
2018-11-05T04:53:21.131Z,6.60
2018-11-05T04:55:51.928Z,6.33
2018-11-05T04:58:25.413Z,5.90
2018-11-05T05:00:56.702Z,6.13
2018-11-05T05:03:30.965Z,6.20
2018-11-05T05:06:01.570Z,6.63
2018-11-05T05:08:33.427Z,6.50
2018-11-05T05:11:06.674Z,6.43
2018-11-05T05:16:59.289Z,7.70
2018-11-05T05:19:31.117Z,6.77
2018-11-05T05:22:04.346Z,6.23
2018-11-05T05:24:36.214Z,6.23
2018-11-05T05:27:08.431Z,5.53
2018-11-05T05:29:40.408Z,6.13
2018-11-05T05:32:11.655Z,7.20
2018-11-05T05:34:42.375Z,7.07
2018-11-05T05:37:13.299Z,5.97
2018-11-05T05:39:44.046Z,6.53
2018-11-05T05:42:14.641Z,6.47
2018-11-05T05:44:47.015Z,6.87
2018-11-05T05:47:17.793Z,6.10
2018-11-05T05:49:48.791Z,6.73
2018-11-05T05:52:20.475Z,8.33
2018-11-05T05:54:52.829Z,7.67
2018-11-05T05:57:24.032Z,9.57
2018-11-05T05:59:55.261Z,13.50
2018-11-05T06:02:31.657Z,10.23
2018-11-05T06:05:03.634Z,11.00
2018-11-05T06:07:34.420Z,10.23
2018-11-05T06:10:05.802Z,9.27
2018-11-05T06:12:36.613Z,8.90
2018-11-05T06:15:10.914Z,7.80
2018-11-05T06:17:42.106Z,8.00
2018-11-05T06:20:15.468Z,7.40
2018-11-05T06:22:47.101Z,7.10
2018-11-05T06:25:18.129Z,7.23
2018-11-05T06:27:50.404Z,7.13
2018-11-05T06:30:21.921Z,7.40
2018-11-05T06:32:53.263Z,7.37
2018-11-05T06:35:24.345Z,7.53
2018-11-05T06:37:55.188Z,7.07
2018-11-05T06:40:26.239Z,7.27
2018-11-05T06:42:57.033Z,7.50
2018-11-05T06:45:27.854Z,7.07
2018-11-05T06:48:00.596Z,7.90
2018-11-05T06:50:31.357Z,6.87
2018-11-05T06:53:02.371Z,7.70
2018-11-05T06:55:33.762Z,7.73
2018-11-05T06:58:04.590Z,6.93
2018-11-05T07:00:35.191Z,6.80
2018-11-05T07:03:06.351Z,6.67
2018-11-05T07:05:37.732Z,6.80
2018-11-05T07:08:08.537Z,5.70
2018-11-05T07:10:39.930Z,6.53
2018-11-05T07:13:10.638Z,7.63
2018-11-05T07:15:41.947Z,7.20
2018-11-05T07:24:27.719Z,7.87
2018-11-05T07:26:58.324Z,8.53
2018-11-05T07:29:29.289Z,8.33
2018-11-05T07:32:00.126Z,8.17
2018-11-05T07:34:31.356Z,8.23
2018-11-05T07:37:02.200Z,9.57
2018-11-05T07:39:33.044Z,8.40
2018-11-05T07:42:04.070Z,8.33
2018-11-05T07:44:35.097Z,7.50
2018-11-05T07:47:05.871Z,7.10
2018-11-05T07:49:36.520Z,7.77
2018-11-05T07:52:07.866Z,6.50
2018-11-05T07:54:38.927Z,7.80
2018-11-05T07:57:09.514Z,7.60
2018-11-05T07:59:45.236Z,7.17
2018-11-05T08:02:15.947Z,6.90
2018-11-05T08:04:47.151Z,6.70
2018-11-05T08:07:18.265Z,6.67
2018-11-05T08:09:49.002Z,7.97
2018-11-05T08:12:21.232Z,7.47
2018-11-05T08:14:55.319Z,7.27
2018-11-05T08:24:25.636Z,7.60
2018-11-05T08:26:56.936Z,7.30
2018-11-05T08:29:27.396Z,7.73
2018-11-05T08:31:57.858Z,7.87
2018-11-05T08:34:28.264Z,7.50
2018-11-05T08:36:58.643Z,6.93
2018-11-05T08:39:29.430Z,7.60
2018-11-05T08:41:59.992Z,7.37
2018-11-05T08:44:30.436Z,7.73
2018-11-05T08:47:02.237Z,7.97
2018-11-05T08:49:32.948Z,7.70
2018-11-05T08:52:03.395Z,6.87
2018-11-05T08:54:33.852Z,7.63
2018-11-05T08:57:06.892Z,7.47
2018-11-05T08:59:37.354Z,8.33
2018-11-05T09:02:08.009Z,7.90
2018-11-05T09:04:39.096Z,7.30
2018-11-05T09:07:15.779Z,7.63
2018-11-05T09:09:47.449Z,7.83
2018-11-05T09:12:17.945Z,7.70
2018-11-05T09:14:48.792Z,7.70
2018-11-05T09:17:19.985Z,6.70
2018-11-05T09:19:50.680Z,7.03
2018-11-05T09:22:21.393Z,6.80
2018-11-05T09:24:53.875Z,6.90
2018-11-05T09:27:25.390Z,7.23
2018-11-05T09:29:55.830Z,6.77
2018-11-05T09:32:26.262Z,6.47
2018-11-05T09:34:56.756Z,6.37
2018-11-05T09:37:27.158Z,6.30
2018-11-05T09:39:57.942Z,6.80
2018-11-05T09:42:28.378Z,6.30
2018-11-05T09:44:58.884Z,5.90
2018-11-05T09:47:29.590Z,6.60
2018-11-05T09:50:00.009Z,6.57
2018-11-05T09:52:30.409Z,6.03
2018-11-05T09:55:00.810Z,6.00
2018-11-05T09:57:31.254Z,6.13
2018-11-05T10:00:01.740Z,6.13
2018-11-05T10:02:37.368Z,6.17
2018-11-05T10:05:08.105Z,6.17
2018-11-05T10:07:38.301Z,5.43
2018-11-05T10:10:10.688Z,6.50
2018-11-05T10:12:41.525Z,5.57
2018-11-05T10:15:14.133Z,5.60
2018-11-05T10:17:45.368Z,5.80
2018-11-05T10:20:19.676Z,5.60
2018-11-05T10:22:50.655Z,5.90
2018-11-05T10:25:21.544Z,5.73
2018-11-05T10:27:52.663Z,5.90
2018-11-05T10:30:24.527Z,6.10
2018-11-05T10:32:55.079Z,6.40
2018-11-05T10:35:30.569Z,6.57
2018-11-05T10:38:01.299Z,6.50
2018-11-05T10:40:32.050Z,5.93
2018-11-05T10:43:02.509Z,6.00
2018-11-05T10:45:32.955Z,5.77
2018-11-05T10:48:04.056Z,5.93
2018-11-05T10:50:34.560Z,6.17
2018-11-05T10:53:06.605Z,6.03
2018-11-05T10:55:37.236Z,6.00
2018-11-05T10:58:07.818Z,6.47
2018-11-05T11:00:44.544Z,6.77
2018-11-05T11:03:19.063Z,6.07
2018-11-05T11:05:49.510Z,6.10
2018-11-05T11:08:20.188Z,6.53
2018-11-05T11:10:52.072Z,5.30
2018-11-05T11:13:22.494Z,6.13
2018-11-05T11:15:52.876Z,6.03
2018-11-05T11:18:23.684Z,6.77
2018-11-05T11:20:55.252Z,6.47
2018-11-05T11:23:25.657Z,6.43
2018-11-05T11:25:57.125Z,7.20
2018-11-05T11:28:29.182Z,6.00
2018-11-05T11:30:59.797Z,6.93
2018-11-05T11:33:30.615Z,6.63
2018-11-05T11:36:03.555Z,5.93
2018-11-05T11:38:33.988Z,6.83
2018-11-05T11:41:04.929Z,7.00
2018-11-05T11:43:35.337Z,6.43
2018-11-05T11:46:06.546Z,6.43
2018-11-05T11:48:37.118Z,6.23
2018-11-05T11:51:07.930Z,6.70
2018-11-05T11:53:38.364Z,7.30
2018-11-05T11:56:08.876Z,6.73
2018-11-05T11:58:39.454Z,6.80
2018-11-05T12:01:09.745Z,6.27
2018-11-05T12:03:40.676Z,6.63
2018-11-05T12:06:11.299Z,6.67
2018-11-05T12:08:41.729Z,6.73
2018-11-05T12:11:16.573Z,6.60
2018-11-05T12:13:47.748Z,5.87
2018-11-05T12:16:18.540Z,6.57
2018-11-05T12:18:49.474Z,6.50
2018-11-05T12:21:20.009Z,6.37
2018-11-05T12:23:50.713Z,6.50
2018-11-05T12:26:33.092Z,5.90
2018-11-05T12:29:03.664Z,5.67
2018-11-05T12:31:34.270Z,6.77
2018-11-05T12:34:05.254Z,6.27
2018-11-05T12:36:35.931Z,6.30
2018-11-05T12:39:11.039Z,5.80
2018-11-05T12:41:42.502Z,6.43
2018-11-05T12:44:13.168Z,6.70
2018-11-05T12:46:43.807Z,5.80
2018-11-05T12:49:14.795Z,5.50
2018-11-05T12:51:47.288Z,5.90
2018-11-05T12:54:19.572Z,5.80
2018-11-05T12:56:50.353Z,5.57
2018-11-05T12:59:20.939Z,6.10
2018-11-05T13:01:56.123Z,5.87
2018-11-05T13:04:29.221Z,6.63
2018-11-05T13:07:02.128Z,6.07
2018-11-05T13:09:33.319Z,6.10
2018-11-05T13:12:06.397Z,6.37
2018-11-05T13:14:39.796Z,6.00
2018-11-05T13:17:18.328Z,6.43
2018-11-05T13:19:50.438Z,5.80
2018-11-05T13:22:25.122Z,6.17
2018-11-05T13:25:03.803Z,6.33
2018-11-05T13:27:35.725Z,6.40
2018-11-05T13:30:10.248Z,6.30
2018-11-05T13:32:41.797Z,6.57
2018-11-05T13:35:13.920Z,5.87
2018-11-05T13:37:47.791Z,5.90
2018-11-05T13:40:20.834Z,5.80
2018-11-05T13:42:53.319Z,5.83
2018-11-05T13:45:26.659Z,6.17
2018-11-05T13:47:58.821Z,6.23
2018-11-05T13:50:32.028Z,6.47
2018-11-05T13:53:04.018Z,6.20
2018-11-05T13:55:36.354Z,6.07
2018-11-05T13:58:08.797Z,6.00
2018-11-05T14:00:40.910Z,5.80
2018-11-05T14:03:12.818Z,6.03
2018-11-05T14:05:44.262Z,6.13
2018-11-05T14:08:15.234Z,5.20
2018-11-05T14:10:46.518Z,5.77
2018-11-05T14:13:17.000Z,5.30
2018-11-05T14:15:47.764Z,5.17
2018-11-05T14:18:18.424Z,5.90
2018-11-05T14:20:49.911Z,6.13
2018-11-05T14:23:21.465Z,5.40
2018-11-05T14:25:52.037Z,6.13
2018-11-05T14:28:26.102Z,5.50
2018-11-05T14:30:56.440Z,5.90
2018-11-05T14:33:26.877Z,5.67
2018-11-05T14:35:58.106Z,5.53
2018-11-05T14:38:29.637Z,5.33
2018-11-05T14:41:00.411Z,5.23
2018-11-05T14:43:31.298Z,5.37
2018-11-05T14:46:01.983Z,5.80
2018-11-05T14:48:33.224Z,5.80
2018-11-05T14:51:03.754Z,5.87
2018-11-05T14:53:35.248Z,5.60
2018-11-05T14:56:06.551Z,4.70
2018-11-05T14:58:37.528Z,5.43
2018-11-05T15:01:08.554Z,5.60
2018-11-05T15:03:39.357Z,4.80
2018-11-05T15:06:09.951Z,5.33
2018-11-05T15:08:40.990Z,6.90
2018-11-05T15:11:11.585Z,5.50
2018-11-05T15:13:42.586Z,5.67
2018-11-05T15:16:13.552Z,5.60
2018-11-05T15:18:44.386Z,5.23
2018-11-05T15:21:15.092Z,5.57
2018-11-05T15:23:45.886Z,5.80
2018-11-05T15:26:16.473Z,5.93
2018-11-05T15:28:47.115Z,5.40
2018-11-05T15:31:17.922Z,5.23
2018-11-05T15:33:49.078Z,4.80
2018-11-05T15:36:19.793Z,5.90
2018-11-05T15:38:51.880Z,8.60
2018-11-05T15:41:23.677Z,5.50
2018-11-05T15:43:57.333Z,6.73
2018-11-05T15:46:28.322Z,5.40
2018-11-05T15:48:59.665Z,6.23
2018-11-05T15:51:30.722Z,11.00
2018-11-05T15:54:01.707Z,7.00
2018-11-05T15:56:32.147Z,5.90
2018-11-05T15:59:03.044Z,6.70
2018-11-05T16:01:33.714Z,6.60
2018-11-05T16:04:05.326Z,6.43
2018-11-05T16:06:36.196Z,6.73
2018-11-05T16:09:09.382Z,6.87
2018-11-05T16:11:39.926Z,7.77
2018-11-05T16:14:10.558Z,7.17
2018-11-05T16:16:41.694Z,6.47
2018-11-05T16:19:12.135Z,7.10
2018-11-05T16:21:44.283Z,7.03
2018-11-05T16:24:15.578Z,9.33
2018-11-05T16:26:46.489Z,7.63
2018-11-05T16:29:17.414Z,6.83
2018-11-05T16:34:57.492Z,6.90
2018-11-05T16:37:28.349Z,6.87
2018-11-05T16:39:59.813Z,7.70
2018-11-05T16:42:32.487Z,7.50
2018-11-05T16:45:02.965Z,7.23
2018-11-05T16:47:35.119Z,7.67
2018-11-05T16:50:16.865Z,7.80
2018-11-05T16:52:48.174Z,7.10
2018-11-05T16:55:19.972Z,7.50
2018-11-05T16:57:51.241Z,7.57
2018-11-05T17:00:22.585Z,7.20
2018-11-05T17:02:54.241Z,6.80
2018-11-05T17:05:24.994Z,6.67
2018-11-05T17:07:56.167Z,6.30
2018-11-05T17:10:27.088Z,6.50
2018-11-05T17:12:59.883Z,6.43
2018-11-05T17:15:30.733Z,6.50
2018-11-05T17:18:01.814Z,6.53
2018-11-05T17:20:33.428Z,6.03
2018-11-05T17:23:04.116Z,6.87
2018-11-05T17:25:35.687Z,5.90
2018-11-05T17:28:06.244Z,6.70
2018-11-05T17:30:37.214Z,6.53
2018-11-05T17:33:08.653Z,6.43
2018-11-05T17:35:39.591Z,6.63
2018-11-05T17:38:10.650Z,6.27
2018-11-05T17:40:42.088Z,6.77
2018-11-05T17:43:13.191Z,7.63
2018-11-05T17:45:44.564Z,7.03
2018-11-05T17:48:15.549Z,9.87
2018-11-05T17:50:47.589Z,8.00
2018-11-05T17:53:19.054Z,6.80
2018-11-05T17:55:50.089Z,7.00
2018-11-05T17:58:21.285Z,7.07
2018-11-05T18:00:55.673Z,8.07
2018-11-05T18:03:27.278Z,7.27
2018-11-05T18:05:58.808Z,7.50
2018-11-05T20:10:31.431Z,8.70
2018-11-05T20:13:02.437Z,11.57
2018-11-05T20:15:33.175Z,8.77
2018-11-05T20:18:04.042Z,9.80
2018-11-05T20:20:35.708Z,9.37
2018-11-05T20:23:06.728Z,9.13
2018-11-05T20:25:37.578Z,9.57
2018-11-05T20:28:08.587Z,9.50
2018-11-05T20:30:39.347Z,10.83
2018-11-05T20:33:11.903Z,9.57
2018-11-05T20:35:42.798Z,9.83
2018-11-05T20:38:15.891Z,9.40
2018-11-05T20:40:46.505Z,11.27
2018-11-05T20:43:18.819Z,10.20
2018-11-05T20:46:14.984Z,9.50
2018-11-05T20:48:49.988Z,9.10
2018-11-05T20:51:22.359Z,9.80
2018-11-05T20:53:53.264Z,9.10
2018-11-05T20:56:27.274Z,7.63
2018-11-05T20:58:59.469Z,7.93
2018-11-05T21:01:32.099Z,7.27
2018-11-05T21:04:04.125Z,7.37
2018-11-05T21:06:37.325Z,8.20
2018-11-05T21:09:10.505Z,8.00
2018-11-05T21:11:42.197Z,8.50
2018-11-05T21:14:13.228Z,8.30
2018-11-05T21:16:44.491Z,8.10
2018-11-05T21:19:15.206Z,8.37
2018-11-05T21:21:46.253Z,7.97
2018-11-05T21:24:16.985Z,8.83
2018-11-05T21:26:47.475Z,8.60
2018-11-05T21:29:18.169Z,8.57
2018-11-05T21:32:05.908Z,8.77
2018-11-05T21:34:37.509Z,8.73
2018-11-05T21:37:08.261Z,8.07
2018-11-05T21:39:40.497Z,8.87
2018-11-05T21:42:12.577Z,9.33
2018-11-05T21:44:43.141Z,8.57
2018-11-05T21:47:18.835Z,9.00
2018-11-05T21:49:49.394Z,8.43
2018-11-05T21:52:20.275Z,8.63
2018-11-05T21:54:51.323Z,7.73
2018-11-05T21:57:22.578Z,8.77
2018-11-05T21:59:53.384Z,8.70
2018-11-05T22:02:24.124Z,9.13
2018-11-05T22:04:55.607Z,8.50
2018-11-05T22:07:26.494Z,7.53
2018-11-05T22:09:57.582Z,8.23
2018-11-05T22:12:28.624Z,7.23
2018-11-05T22:14:59.099Z,8.43
2018-11-05T22:17:29.669Z,7.80
2018-11-05T22:20:01.771Z,8.20
2018-11-05T22:22:32.387Z,8.73
2018-11-05T22:25:06.459Z,8.33
2018-11-05T22:27:37.401Z,9.10
2018-11-05T22:30:10.377Z,8.93
2018-11-05T22:32:41.257Z,10.27
2018-11-05T22:35:12.138Z,9.17
2018-11-05T22:37:43.471Z,9.07
2018-11-05T22:40:15.213Z,8.70
2018-11-05T22:42:46.789Z,8.47
2018-11-05T22:45:17.148Z,8.47
2018-11-05T22:50:56.535Z,8.70
2018-11-05T22:53:28.180Z,9.03
2018-11-05T22:55:59.081Z,9.13
2018-11-05T22:58:29.677Z,9.23
2018-11-05T23:01:06.163Z,8.83
2018-11-05T23:03:36.896Z,8.27
2018-11-05T23:06:07.722Z,9.10
2018-11-05T23:08:38.217Z,8.60
2018-11-05T23:11:10.482Z,8.70
2018-11-05T23:13:41.925Z,9.37
2018-11-05T23:16:13.256Z,8.83
2018-11-05T23:18:43.837Z,9.00
2018-11-05T23:21:15.392Z,8.87
2018-11-05T23:23:46.005Z,9.03
2018-11-05T23:26:18.093Z,8.50
2018-11-05T23:28:49.040Z,8.57
2018-11-05T23:31:20.133Z,9.53
2018-11-05T23:33:50.678Z,9.00
2018-11-05T23:36:21.482Z,8.60
2018-11-05T23:38:52.191Z,9.27
2018-11-05T23:41:22.901Z,9.00
2018-11-05T23:43:53.587Z,9.53
2018-11-05T23:46:24.549Z,9.37
2018-11-05T23:48:55.197Z,9.13
2018-11-05T23:51:26.487Z,8.00
2018-11-05T23:53:57.431Z,9.60
2018-11-05T23:56:28.028Z,8.47
2018-11-05T23:58:59.058Z,9.07
